Time;durP1;ratioP1;P1;durP2;ratioP2;P2;SDS_P1;SDS_P2;PMS_P1;PMS_P2;Temp;Humidity;BMP_temperature;BMP_pressure;BME280_temperature;BME280_humidity;BME280_pressure;Samples;Min_cycle;Max_cycle;Signal;HPM_P1;HPM_P2
2022/07/12 00:01:08;;;;;;;1.60;0.80;;;14.60;99.90;;;;;;5075054;28;20133;-76
2022/07/12 00:03:34;;;;;;;1.38;0.80;;;14.50;99.90;;;;;;5075076;28;20083;-76
2022/07/12 00:06:01;;;;;;;1.48;0.70;;;14.30;99.90;;;;;;5074781;28;20047;-76
2022/07/12 00:08:27;;;;;;;1.80;0.80;;;14.10;99.90;;;;;;5076184;28;20048;-76
2022/07/12 00:10:53;;;;;;;1.42;0.70;;;14.00;99.90;;;;;;5075828;28;20079;-76
2022/07/12 00:13:19;;;;;;;1.63;0.75;;;13.80;99.90;;;;;;5075855;28;20053;-76
2022/07/12 00:15:45;;;;;;;8.27;1.27;;;13.70;99.90;;;;;;5075822;28;20114;-76
2022/07/12 00:18:11;;;;;;;13.25;1.75;;;13.60;99.90;;;;;;5074517;28;20401;-76
2022/07/12 00:20:37;;;;;;;0.95;0.50;;;13.50;99.90;;;;;;5076329;28;20044;-76
2022/07/12 00:23:03;;;;;;;16.10;1.35;;;13.30;99.90;;;;;;5075667;28;20120;-76
2022/07/12 00:25:29;;;;;;;10.85;1.40;;;13.20;99.90;;;;;;5074625;28;20045;-76
2022/07/12 00:27:55;;;;;;;5.47;0.90;;;13.10;99.90;;;;;;5075628;28;20048;-76
2022/07/12 00:30:21;;;;;;;11.27;1.20;;;12.90;99.90;;;;;;5075536;28;20131;-76
2022/07/12 00:32:47;;;;;;;29.15;3.35;;;12.80;99.90;;;;;;5075422;28;20045;-76
2022/07/12 00:35:14;;;;;;;27.33;2.75;;;12.70;99.90;;;;;;5074262;28;20055;-75
2022/07/12 00:37:40;;;;;;;23.58;2.05;;;12.60;99.90;;;;;;5074435;28;20048;-76
2022/07/12 00:40:08;;;;;;;1.65;0.98;;;12.50;99.90;;;;;;5075424;28;20048;-76
2022/07/12 00:42:35;;;;;;;1.73;0.90;;;12.40;99.90;;;;;;5074476;28;20051;-76
2022/07/12 00:45:06;;;;;;;3.38;0.90;;;12.40;99.90;;;;;;5075210;28;20047;-76
2022/07/12 00:47:44;;;;;;;8.32;1.15;;;12.40;99.90;;;;;;5075271;28;20040;-76
2022/07/12 00:50:20;;;;;;;4.68;1.05;;;12.40;99.90;;;;;;5075815;28;20385;-75
2022/07/12 00:52:48;;;;;;;50.45;4.25;;;12.40;99.90;;;;;;5073802;28;20149;-76
2022/07/12 00:55:15;;;;;;;4.68;0.90;;;12.40;99.90;;;;;;5074163;28;20053;-76
2022/07/12 00:57:45;;;;;;;5.18;0.77;;;12.50;99.90;;;;;;5074816;28;20139;-75
2022/07/12 01:00:15;;;;;;;7.93;0.80;;;12.50;99.90;;;;;;5074962;28;20048;-76
2022/07/12 01:02:42;;;;;;;17.95;1.70;;;12.50;99.90;;;;;;5075581;28;20040;-76
2022/07/12 01:05:08;;;;;;;24.45;1.98;;;12.50;99.90;;;;;;5074919;28;20067;-76
2022/07/12 01:07:34;;;;;;;0.88;0.40;;;12.40;99.90;;;;;;5074993;28;20493;-76
2022/07/12 01:10:01;;;;;;;0.93;0.40;;;12.30;99.90;;;;;;5074815;28;20090;-76
2022/07/12 01:12:27;;;;;;;1.90;0.57;;;12.30;99.90;;;;;;5074671;28;20041;-76
2022/07/12 01:14:53;;;;;;;6.80;1.58;;;12.40;99.90;;;;;;5073591;28;20044;-76
2022/07/12 01:17:23;;;;;;;44.55;3.78;;;12.50;99.90;;;;;;5074640;28;20131;-76
2022/07/12 01:19:51;;;;;;;5.55;1.90;;;12.60;99.90;;;;;;5074392;28;20063;-76
2022/07/12 01:22:18;;;;;;;31.23;2.30;;;12.70;99.90;;;;;;5073351;28;20076;-76
2022/07/12 01:24:47;;;;;;;15.45;1.40;;;12.80;99.90;;;;;;5074541;28;20064;-76
2022/07/12 01:27:13;;;;;;;13.45;1.58;;;12.80;99.90;;;;;;5075011;28;20087;-76
2022/07/12 01:29:39;;;;;;;18.33;2.08;;;12.80;99.90;;;;;;5074422;28;20056;-76
2022/07/12 01:32:24;;;;;;;20.10;1.85;;;12.80;99.90;;;;;;5074182;28;20049;-76
2022/07/12 01:34:52;;;;;;;23.27;2.13;;;12.60;99.90;;;;;;5073557;28;20397;-76
2022/07/12 01:37:20;;;;;;;28.83;2.35;;;12.50;99.90;;;;;;5074747;28;20048;-76
2022/07/12 01:39:47;;;;;;;8.93;1.10;;;12.40;99.90;;;;;;5073935;28;20065;-76
2022/07/12 01:42:13;;;;;;;4.60;0.60;;;12.40;99.90;;;;;;5074167;28;20119;-76
2022/07/12 01:44:39;;;;;;;2.00;0.50;;;12.30;99.90;;;;;;5072831;28;20131;-76
2022/07/12 01:47:05;;;;;;;3.08;0.60;;;12.20;99.90;;;;;;5073775;28;20515;-76
2022/07/12 01:49:30;;;;;;;3.38;0.47;;;12.10;99.90;;;;;;5073662;28;20060;-76
2022/07/12 01:51:58;;;;;;;1.10;0.47;;;12.00;99.90;;;;;;5073875;28;20076;-76
2022/07/12 01:54:25;;;;;;;20.70;1.63;;;11.90;99.90;;;;;;5072976;28;20389;-76
2022/07/12 01:56:52;;;;;;;12.55;0.98;;;11.90;99.90;;;;;;5072471;28;20044;-75
2022/07/12 01:59:21;;;;;;;25.63;1.70;;;11.80;99.90;;;;;;5073787;28;20053;-75
2022/07/12 02:01:48;;;;;;;9.45;0.88;;;11.90;99.90;;;;;;5073838;28;20044;-75
2022/07/12 02:04:17;;;;;;;13.23;1.30;;;12.00;99.90;;;;;;5073292;28;20048;-75
2022/07/12 02:06:46;;;;;;;14.27;1.10;;;12.10;99.90;;;;;;5073389;28;20497;-76
2022/07/12 02:09:13;;;;;;;28.80;1.98;;;12.10;99.90;;;;;;5073727;28;20048;-75
2022/07/12 02:11:39;;;;;;;31.30;2.63;;;12.00;99.90;;;;;;5073539;28;20560;-75
2022/07/12 02:14:05;;;;;;;28.05;2.45;;;11.90;99.90;;;;;;5073604;28;20441;-75
2022/07/12 02:16:31;;;;;;;13.10;1.73;;;11.80;99.90;;;;;;5074093;28;20058;-75
2022/07/12 02:18:57;;;;;;;3.38;1.02;;;11.70;99.90;;;;;;5073532;28;20131;-75
2022/07/12 02:21:23;;;;;;;16.58;1.80;;;11.70;99.90;;;;;;5073258;28;20489;-76
2022/07/12 02:23:49;;;;;;;10.05;1.73;;;11.70;99.90;;;;;;5072547;28;20048;-76
2022/07/12 02:26:15;;;;;;;17.65;2.00;;;11.70;99.90;;;;;;5073335;28;20564;-76
2022/07/12 02:28:41;;;;;;;10.30;1.10;;;11.70;99.90;;;;;;5073424;28;20090;-76
2022/07/12 02:31:07;;;;;;;10.90;1.15;;;11.70;99.90;;;;;;5072549;28;20044;-76
2022/07/12 02:33:32;;;;;;;10.82;1.58;;;11.60;99.90;;;;;;5074209;28;20530;-76
2022/07/12 02:35:58;;;;;;;7.05;1.17;;;11.60;99.90;;;;;;5073248;28;20521;-76
2022/07/12 02:38:24;;;;;;;11.32;1.15;;;11.60;99.90;;;;;;5073299;28;20131;-76
2022/07/12 02:40:55;;;;;;;4.22;1.23;;;11.50;99.90;;;;;;5073571;28;20067;-76
2022/07/12 02:43:25;;;;;;;0.85;0.50;;;11.50;99.90;;;;;;5073751;28;20052;-76
2022/07/12 02:45:53;;;;;;;32.15;2.92;;;11.40;99.90;;;;;;5073243;28;20087;-76
2022/07/12 02:48:19;;;;;;;5.72;1.42;;;11.40;99.90;;;;;;5072234;28;20135;-76
2022/07/12 02:50:45;;;;;;;22.83;2.30;;;11.40;99.90;;;;;;5055583;28;20384;-76
2022/07/12 02:53:11;;;;;;;21.33;2.30;;;11.40;99.90;;;;;;5072621;28;20048;-76
2022/07/12 02:55:38;;;;;;;27.42;2.47;;;11.50;99.90;;;;;;5073732;28;20053;-76
2022/07/12 02:58:05;;;;;;;26.13;2.42;;;11.40;99.90;;;;;;5073084;28;20048;-76
2022/07/12 03:00:32;;;;;;;24.83;2.50;;;11.30;99.90;;;;;;5073065;28;20052;-76
2022/07/12 03:02:57;;;;;;;25.60;2.95;;;11.30;99.90;;;;;;5073047;28;20123;-76
2022/07/12 03:05:23;;;;;;;40.13;3.88;;;11.30;99.90;;;;;;5038810;28;20475;-76
2022/07/12 03:07:49;;;;;;;23.95;3.08;;;11.20;99.90;;;;;;5073797;28;20105;-76
2022/07/12 03:10:15;;;;;;;14.88;1.63;;;11.20;99.90;;;;;;5072980;28;20492;-76
2022/07/12 03:12:40;;;;;;;24.70;2.63;;;11.20;99.90;;;;;;5071649;28;20033;-76
2022/07/12 03:15:06;;;;;;;34.17;2.70;;;11.50;99.90;;;;;;5073050;28;20087;-76
2022/07/12 03:17:33;;;;;;;25.42;2.90;;;11.20;99.90;;;;;;5077438;28;20059;-76
2022/07/12 03:19:59;;;;;;;13.63;2.10;;;11.20;99.90;;;;;;5075787;28;20408;-76
2022/07/12 03:22:25;;;;;;;9.68;1.30;;;11.20;99.90;;;;;;5077190;28;20070;-76
2022/07/12 03:24:51;;;;;;;10.75;1.92;;;11.20;99.90;;;;;;5076762;28;20137;-76
2022/07/12 03:27:17;;;;;;;13.45;1.45;;;11.70;99.90;;;;;;5076611;28;20059;-76
2022/07/12 03:29:43;;;;;;;4.25;1.17;;;11.30;99.90;;;;;;5077225;28;20058;-76
2022/07/12 03:32:09;;;;;;;32.33;2.80;;;11.30;99.90;;;;;;5077205;28;20044;-76
2022/07/12 03:34:35;;;;;;;34.80;3.75;;;11.30;99.90;;;;;;5077017;28;20051;-76
2022/07/12 03:37:02;;;;;;;44.95;4.07;;;11.30;99.90;;;;;;5075326;28;20044;-76
2022/07/12 03:39:27;;;;;;;34.80;3.35;;;11.30;99.90;;;;;;5076434;28;20485;-76
2022/07/12 03:41:53;;;;;;;24.48;2.92;;;11.20;99.90;;;;;;5075239;28;20094;-76
2022/07/12 03:44:19;;;;;;;11.18;1.80;;;11.20;99.90;;;;;;5076319;28;20113;-76
2022/07/12 03:46:44;;;;;;;12.77;2.45;;;11.20;99.90;;;;;;5076912;28;20045;-76
2022/07/12 03:49:11;;;;;;;6.00;1.60;;;11.20;99.90;;;;;;5076854;28;20354;-77
2022/07/12 03:51:36;;;;;;;2.90;1.40;;;11.20;99.90;;;;;;5076200;28;20040;-76
2022/07/12 03:54:05;;;;;;;5.13;1.60;;;11.20;99.90;;;;;;5076287;28;20044;-76
2022/07/12 03:59:15;;;;;;;2.95;1.40;;;11.30;99.90;;;;;;5076445;28;20561;-76
2022/07/12 04:01:40;;;;;;;5.30;1.95;;;11.30;99.90;;;;;;5076121;28;20080;-77
2022/07/12 04:04:06;;;;;;;2.97;1.60;;;11.40;99.90;;;;;;5076803;28;20439;-77
2022/07/12 04:06:32;;;;;;;4.50;1.42;;;11.40;99.90;;;;;;5075012;28;20098;-76
2022/07/12 04:08:57;;;;;;;4.75;1.80;;;11.50;99.90;;;;;;5076272;28;20044;-77
2022/07/12 04:11:23;;;;;;;2.40;1.50;;;11.60;99.90;;;;;;5076635;28;20426;-77
2022/07/12 04:13:48;;;;;;;5.30;1.80;;;11.60;99.90;;;;;;5074686;28;20044;-77
2022/07/12 04:16:14;;;;;;;3.47;2.00;;;11.70;99.90;;;;;;5075103;28;20128;-77
2022/07/12 04:18:40;;;;;;;3.13;1.80;;;11.80;99.90;;;;;;5075894;28;20111;-76
2022/07/12 04:21:05;;;;;;;3.97;1.73;;;11.90;99.90;;;;;;5075559;28;20404;-77
2022/07/12 04:23:31;;;;;;;3.03;1.80;;;11.90;99.90;;;;;;5074553;28;20044;-77
2022/07/12 04:25:57;;;;;;;2.83;1.70;;;11.90;99.90;;;;;;5057774;28;20053;-77
2022/07/12 04:28:22;;;;;;;3.58;1.50;;;12.10;99.90;;;;;;5074946;28;20056;-77
2022/07/12 04:30:48;;;;;;;2.60;1.52;;;12.10;99.90;;;;;;5075605;28;20123;-77
2022/07/12 04:33:14;;;;;;;2.38;1.40;;;12.20;99.90;;;;;;5075492;28;20045;-77
2022/07/12 04:35:40;;;;;;;2.65;1.50;;;12.30;99.90;;;;;;5075526;28;20090;-77
2022/07/12 04:38:07;;;;;;;2.50;1.65;;;12.40;99.90;;;;;;5075696;28;20442;-77
2022/07/12 04:40:33;;;;;;;3.83;1.48;;;12.50;99.90;;;;;;5075484;28;20127;-77
2022/07/12 04:42:59;;;;;;;3.53;1.60;;;12.60;99.90;;;;;;5075378;28;20076;-77
2022/07/12 04:45:25;;;;;;;3.03;1.77;;;12.80;99.90;;;;;;5075301;28;20044;-77
2022/07/12 04:47:50;;;;;;;2.17;1.33;;;12.90;99.90;;;;;;5074013;28;20382;-77
2022/07/12 04:50:16;;;;;;;2.15;1.20;;;13.00;99.90;;;;;;5074078;28;20055;-77
2022/07/12 04:52:41;;;;;;;2.15;1.40;;;13.20;99.90;;;;;;5074179;28;20097;-77
2022/07/12 04:55:08;;;;;;;2.45;1.40;;;13.20;99.90;;;;;;5075186;28;20386;-77
2022/07/12 04:57:34;;;;;;;3.40;1.40;;;13.30;99.90;;;;;;5073517;28;20144;-77
2022/07/12 05:00:00;;;;;;;2.60;1.60;;;13.30;99.90;;;;;;5057245;28;20137;-77
2022/07/12 05:02:26;;;;;;;2.90;1.50;;;13.40;99.90;;;;;;5074054;28;20092;-77
2022/07/12 05:04:52;;;;;;;2.90;1.88;;;13.40;99.90;;;;;;5074968;28;20105;-77
2022/07/12 05:07:18;;;;;;;2.70;1.70;;;13.50;99.90;;;;;;5075409;28;20102;-77
2022/07/12 05:09:43;;;;;;;3.50;1.83;;;13.60;99.90;;;;;;5075153;28;20048;-77
2022/07/12 05:12:09;;;;;;;3.08;1.90;;;13.70;99.90;;;;;;5074727;28;20408;-77
2022/07/12 05:14:35;;;;;;;3.33;2.15;;;13.80;99.90;;;;;;5074734;28;20060;-77
2022/07/12 05:17:00;;;;;;;3.65;2.30;;;14.00;99.90;;;;;;5074746;28;20366;-77
2022/07/12 05:19:26;;;;;;;3.53;2.03;;;14.20;99.90;;;;;;5074647;28;20044;-77
2022/07/12 05:21:52;;;;;;;4.68;2.50;;;14.30;99.90;;;;;;5075032;28;20052;-77
2022/07/12 05:24:17;;;;;;;3.88;2.40;;;14.50;99.90;;;;;;5074862;28;20043;-77
2022/07/12 05:26:43;;;;;;;3.88;2.60;;;14.60;99.90;;;;;;5074745;28;20466;-77
2022/07/12 05:29:09;;;;;;;3.45;2.30;;;14.80;99.90;;;;;;5073236;28;20492;-77
2022/07/12 05:31:35;;;;;;;3.13;2.10;;;14.90;99.90;;;;;;5073660;28;20051;-77
2022/07/12 05:34:01;;;;;;;3.88;2.40;;;15.10;99.90;;;;;;5073155;28;20076;-77
2022/07/12 05:36:27;;;;;;;3.53;2.40;;;15.20;99.90;;;;;;5073308;28;20095;-77
2022/07/12 05:38:53;;;;;;;3.55;2.60;;;15.40;99.90;;;;;;5073356;28;20076;-77
2022/07/12 05:41:18;;;;;;;3.75;2.53;;;15.50;99.90;;;;;;5074144;28;20520;-77
2022/07/12 05:43:44;;;;;;;3.75;2.58;;;15.50;99.90;;;;;;5073159;28;20048;-77
2022/07/12 05:46:10;;;;;;;3.70;2.70;;;15.60;99.90;;;;;;5074064;28;20048;-77
2022/07/12 05:48:37;;;;;;;5.70;3.53;;;15.60;99.90;;;;;;5074040;28;20582;-77
2022/07/12 05:53:47;;;;;;;6.30;4.18;;;15.70;99.90;;;;;;5073740;28;20057;-77
2022/07/12 05:56:13;;;;;;;5.07;3.72;;;15.70;99.90;;;;;;5073880;28;20084;-77
2022/07/12 05:58:40;;;;;;;4.95;3.70;;;15.70;99.90;;;;;;5072497;28;20048;-77
2022/07/12 06:01:06;;;;;;;4.60;3.58;;;15.70;99.90;;;;;;5073844;28;20064;-77
2022/07/12 06:03:32;;;;;;;5.65;4.40;;;15.80;99.90;;;;;;5073791;28;20084;-77
2022/07/12 06:05:58;;;;;;;6.95;5.00;;;16.00;99.90;;;;;;5089704;28;20049;-77
2022/07/12 06:08:24;;;;;;;5.50;4.32;;;16.10;99.90;;;;;;5073726;28;20056;-77
2022/07/12 06:10:50;;;;;;;5.78;4.40;;;16.30;99.90;;;;;;5073669;28;20051;-71
2022/07/12 06:13:16;;;;;;;6.18;4.40;;;16.50;99.90;;;;;;5073453;28;20052;-67
2022/07/12 06:15:41;;;;;;;5.78;4.05;;;16.70;99.90;;;;;;5073495;28;20381;-68
2022/07/12 06:18:07;;;;;;;5.85;4.40;;;16.90;99.90;;;;;;5072307;28;20081;-67
2022/07/12 06:20:33;;;;;;;7.53;4.80;;;17.00;99.90;;;;;;5073513;28;20052;-67
2022/07/12 06:22:59;;;;;;;5.95;4.28;;;17.00;99.90;;;;;;5074017;28;20355;-67
2022/07/12 06:25:25;;;;;;;5.93;4.20;;;17.00;99.90;;;;;;5073445;28;20049;-67
2022/07/12 06:27:51;;;;;;;5.28;4.20;;;17.10;99.90;;;;;;5073463;28;20067;-67
2022/07/12 06:30:18;;;;;;;5.70;4.13;;;17.10;99.90;;;;;;5072334;28;20076;-68
2022/07/12 06:32:46;;;;;;;5.93;4.57;;;17.10;99.90;;;;;;5073178;28;20102;-68
2022/07/12 06:35:12;;;;;;;4.95;3.78;;;17.10;99.90;;;;;;5073278;28;20049;-67
2022/07/12 06:37:38;;;;;;;5.18;3.83;;;17.20;99.90;;;;;;5072081;28;20060;-68
2022/07/12 06:40:05;;;;;;;5.53;3.70;;;17.30;99.90;;;;;;5073317;28;20123;-68
2022/07/12 06:42:31;;;;;;;4.97;3.90;;;17.30;99.90;;;;;;5073462;28;20067;-68
2022/07/12 06:44:56;;;;;;;4.53;3.58;;;17.40;99.90;;;;;;5072041;28;20049;-68
2022/07/12 06:47:22;;;;;;;6.47;4.28;;;17.50;99.90;;;;;;5073203;28;20481;-67
2022/07/12 06:49:48;;;;;;;5.95;4.28;;;17.50;99.90;;;;;;5073831;28;20557;-68
2022/07/12 06:52:14;;;;;;;4.95;3.85;;;17.60;99.90;;;;;;5073439;28;20040;-68
2022/07/12 06:54:40;;;;;;;5.32;3.95;;;17.60;99.90;;;;;;5073101;28;20041;-67
2022/07/12 06:57:06;;;;;;;6.28;4.60;;;17.60;99.90;;;;;;5073192;28;20041;-67
2022/07/12 06:59:32;;;;;;;5.00;3.80;;;17.60;99.90;;;;;;5073902;28;20378;-67
2022/07/12 07:01:57;;;;;;;5.63;3.60;;;17.70;99.90;;;;;;5073074;28;20051;-67
2022/07/12 07:04:24;;;;;;;5.32;4.13;;;17.70;99.90;;;;;;5073758;28;20082;-67
2022/07/12 07:06:51;;;;;;;5.05;3.55;;;17.80;99.90;;;;;;5072990;28;20493;-67
2022/07/12 07:09:16;;;;;;;6.03;3.88;;;17.80;99.90;;;;;;5073004;28;20048;-67
2022/07/12 07:11:42;;;;;;;4.95;3.90;;;17.80;99.90;;;;;;5072898;28;20040;-68
2022/07/12 07:14:08;;;;;;;5.03;3.70;;;17.90;99.90;;;;;;5072807;28;20049;-68
2022/07/12 07:16:34;;;;;;;4.90;3.70;;;18.00;99.90;;;;;;5072505;28;20085;-68
2022/07/12 07:18:59;;;;;;;4.75;3.42;;;18.00;99.90;;;;;;5072174;28;20044;-67
2022/07/12 07:21:25;;;;;;;4.63;3.60;;;18.10;99.90;;;;;;5073458;28;20047;-66
2022/07/12 07:23:52;;;;;;;5.07;3.45;;;18.20;99.90;;;;;;5071998;28;20049;-67
2022/07/12 07:26:18;;;;;;;5.78;3.53;;;18.20;99.90;;;;;;5072857;28;20106;-67
2022/07/12 07:31:28;;;;;;;4.78;3.38;;;18.40;99.90;;;;;;5072549;28;20091;-67
2022/07/12 07:33:53;;;;;;;4.93;3.33;;;18.50;99.90;;;;;;5071489;28;20044;-68
2022/07/12 07:36:19;;;;;;;4.90;3.63;;;18.40;99.90;;;;;;5072924;28;20095;-68
2022/07/12 07:38:44;;;;;;;4.63;3.63;;;18.40;99.90;;;;;;5072837;28;20052;-68
2022/07/12 07:41:10;;;;;;;4.47;3.42;;;18.50;99.90;;;;;;5073479;28;20128;-67
2022/07/12 07:43:36;;;;;;;5.13;3.47;;;18.60;99.90;;;;;;5071457;28;20439;-67
2022/07/12 07:46:02;;;;;;;4.38;3.47;;;18.70;99.90;;;;;;5072426;28;20056;-67
2022/07/12 07:48:29;;;;;;;4.63;3.45;;;18.70;99.90;;;;;;5072573;28;20052;-67
2022/07/12 07:50:54;;;;;;;6.45;3.80;;;18.80;99.90;;;;;;5072234;28;20040;-67
2022/07/12 07:53:20;;;;;;;4.05;3.28;;;18.90;99.90;;;;;;5072652;28;20044;-67
2022/07/12 07:55:46;;;;;;;4.47;3.47;;;19.00;99.90;;;;;;5072557;28;20121;-67
2022/07/12 07:58:15;;;;;;;4.63;3.58;;;19.10;99.90;;;;;;5072217;28;20061;-67
2022/07/12 08:00:42;;;;;;;4.43;3.38;;;19.20;99.90;;;;;;5072405;28;20477;-67
2022/07/12 08:03:07;;;;;;;6.70;3.63;;;19.30;99.90;;;;;;5075708;28;20041;-68
2022/07/12 08:05:33;;;;;;;4.65;3.40;;;19.50;99.90;;;;;;5076833;28;20055;-67
2022/07/12 08:07:59;;;;;;;3.88;2.97;;;19.60;99.90;;;;;;5075804;28;20363;-67
2022/07/12 08:10:25;;;;;;;4.13;2.80;;;19.70;99.90;;;;;;5075980;28;20051;-67
2022/07/12 08:12:51;;;;;;;4.10;2.75;;;19.80;99.90;;;;;;5075839;28;20055;-67
2022/07/12 08:15:17;;;;;;;3.30;2.40;;;19.90;99.90;;;;;;5074784;28;20044;-67
2022/07/12 08:17:42;;;;;;;3.28;2.70;;;20.00;99.90;;;;;;5075383;28;20051;-67
2022/07/12 08:20:09;;;;;;;3.65;2.35;;;20.20;99.90;;;;;;5075811;28;20059;-68
2022/07/12 08:22:42;;;;;;;3.55;2.85;;;20.20;99.90;;;;;;5076068;28;20110;-67
2022/07/12 08:25:08;;;;;;;3.00;2.20;;;20.30;99.90;;;;;;5074449;28;20059;-67
2022/07/12 08:27:33;;;;;;;4.55;2.35;;;20.30;99.90;;;;;;5074508;28;20044;-69
2022/07/12 08:29:59;;;;;;;3.58;2.33;;;20.50;99.90;;;;;;5075566;28;20055;-68
2022/07/12 08:32:24;;;;;;;2.88;2.08;;;20.60;99.90;;;;;;5075579;28;20036;-67
2022/07/12 08:34:50;;;;;;;3.10;2.15;;;20.80;99.90;;;;;;5075319;28;20547;-68
2022/07/12 08:37:16;;;;;;;3.85;2.15;;;20.80;99.90;;;;;;5075310;28;20041;-67
2022/07/12 08:39:41;;;;;;;2.25;1.73;;;20.90;99.90;;;;;;5075289;28;20044;-67
2022/07/12 08:42:08;;;;;;;3.03;2.10;;;21.00;99.90;;;;;;5075126;28;20210;-67
2022/07/12 08:44:34;;;;;;;3.00;2.28;;;21.10;99.90;;;;;;5074910;28;20508;-67
2022/07/12 08:47:00;;;;;;;3.67;1.90;;;21.30;99.90;;;;;;5075885;28;20048;-67
2022/07/12 08:49:25;;;;;;;2.80;1.60;;;21.40;99.90;;;;;;5075116;28;20048;-67
2022/07/12 08:51:51;;;;;;;2.90;1.90;;;21.40;99.90;;;;;;5074713;28;20050;-68
2022/07/12 08:54:17;;;;;;;2.40;1.92;;;21.40;99.90;;;;;;5073831;28;20127;-67
2022/07/12 08:56:44;;;;;;;3.00;2.10;;;21.40;99.90;;;;;;5074906;28;20109;-67
2022/07/12 08:59:15;;;;;;;3.22;2.00;;;21.30;99.90;;;;;;5073580;28;20072;-67
2022/07/12 09:01:52;;;;;;;2.30;1.70;;;21.40;99.90;;;;;;5074905;28;20084;-67
2022/07/12 09:04:19;;;;;;;2.50;1.85;;;21.40;99.90;;;;;;5073594;28;20044;-66
2022/07/12 09:06:46;;;;;;;2.42;1.80;;;21.50;99.90;;;;;;5074763;28;20044;-67
2022/07/12 09:09:24;;;;;;;3.13;1.80;;;21.60;99.90;;;;;;5074797;28;20067;-66
2022/07/12 09:11:50;;;;;;;2.47;1.88;;;21.60;99.90;;;;;;5075529;28;20091;-66
2022/07/12 09:14:19;;;;;;;2.50;1.90;;;21.60;99.90;;;;;;5074546;28;20477;-66
2022/07/12 09:17:12;;;;;;;2.60;1.50;;;21.70;99.90;;;;;;5075166;28;20048;-66
2022/07/12 09:19:39;;;;;;;2.13;1.58;;;21.60;99.90;;;;;;5074603;28;20106;-66
2022/07/12 09:22:16;;;;;;;2.45;1.95;;;21.60;99.90;;;;;;5074496;28;20037;-66
2022/07/12 09:24:42;;;;;;;2.35;1.80;;;21.70;99.90;;;;;;5074579;28;20048;-67
2022/07/12 09:27:08;;;;;;;3.80;1.88;;;21.70;99.90;;;;;;5074706;28;20496;-67
2022/07/12 09:29:46;;;;;;;3.33;2.50;;;21.70;99.90;;;;;;5074217;28;20050;-67
2022/07/12 09:37:41;;;;;;;2.70;2.20;;;21.90;99.90;;;;;;5074068;28;20101;-66
2022/07/12 09:40:09;;;;;;;2.75;2.10;;;22.00;99.90;;;;;;5073771;28;20056;-67
2022/07/12 09:42:35;;;;;;;3.30;2.10;;;22.10;99.90;;;;;;5074167;28;20048;-67
2022/07/12 09:45:01;;;;;;;3.20;2.05;;;22.10;99.90;;;;;;5072813;28;20053;-66
2022/07/12 09:47:27;;;;;;;3.28;2.15;;;22.10;99.90;;;;;;5074073;28;20078;-67
2022/07/12 09:49:53;;;;;;;2.70;1.98;;;22.20;99.90;;;;;;5074131;28;20120;-67
2022/07/12 09:52:24;;;;;;;3.33;2.20;;;22.30;99.90;;;;;;5073862;28;20044;-66
2022/07/12 09:54:52;;;;;;;2.63;1.80;;;22.40;99.90;;;;;;5073998;28;20075;-67
2022/07/12 09:57:32;;;;;;;2.30;1.60;;;22.40;99.90;;;;;;5074167;28;20051;-66
2022/07/12 09:59:59;;;;;;;2.03;1.42;;;22.50;99.90;;;;;;5073907;28;20040;-66
2022/07/12 10:02:26;;;;;;;2.60;1.77;;;22.50;99.90;;;;;;5073677;28;20113;-66
2022/07/12 10:04:53;;;;;;;3.17;1.92;;;22.50;99.90;;;;;;5073725;28;20052;-67
2022/07/12 10:07:19;;;;;;;3.28;2.10;;;22.40;99.90;;;;;;5055913;28;20138;-67
2022/07/12 10:09:48;;;;;;;2.80;2.08;;;22.50;99.90;;;;;;5073932;28;20408;-67
2022/07/12 10:12:16;;;;;;;2.70;1.88;;;22.50;99.90;;;;;;5073556;28;20056;-66
2022/07/12 10:14:43;;;;;;;2.80;1.58;;;22.60;99.90;;;;;;5073432;28;20084;-69
2022/07/12 10:17:10;;;;;;;2.58;1.70;;;22.70;99.90;;;;;;5073577;28;20048;-67
2022/07/12 10:19:37;;;;;;;3.13;1.60;;;22.80;99.90;;;;;;5073293;28;20083;-67
2022/07/12 10:22:04;;;;;;;2.92;2.05;;;22.80;99.90;;;;;;5073306;28;20041;-67
2022/07/12 10:24:33;;;;;;;2.15;1.63;;;22.80;99.90;;;;;;5073037;28;20123;-68
2022/07/12 10:27:00;;;;;;;2.33;1.90;;;22.80;99.90;;;;;;5073454;28;20128;-68
2022/07/12 10:29:26;;;;;;;2.75;1.77;;;22.90;99.90;;;;;;5073297;28;20058;-67
2022/07/12 10:31:52;;;;;;;2.15;1.30;;;23.00;99.90;;;;;;5072230;28;20538;-67
2022/07/12 10:34:23;;;;;;;2.50;1.27;;;22.90;99.90;;;;;;5072179;28;20106;-66
2022/07/12 10:36:54;;;;;;;1.67;1.17;;;23.00;99.90;;;;;;5071786;28;20485;-67
2022/07/12 10:39:25;;;;;;;2.72;1.88;;;23.10;99.90;;;;;;5073241;28;20048;-67
2022/07/12 10:42:05;;;;;;;3.08;1.77;;;23.20;99.90;;;;;;5073284;28;20059;-67
2022/07/12 10:44:42;;;;;;;2.25;1.20;;;23.30;99.90;;;;;;5073522;28;20135;-67
2022/07/12 10:47:09;;;;;;;2.38;1.30;;;23.40;99.90;;;;;;5073295;28;20482;-66
2022/07/12 10:49:35;;;;;;;2.42;1.23;;;23.50;99.90;;;;;;5073413;28;20051;-67
2022/07/12 10:52:10;;;;;;;1.80;1.20;;;23.40;99.90;;;;;;5072730;28;20493;-67
2022/07/12 10:54:50;;;;;;;2.20;1.50;;;23.30;99.90;;;;;;5055431;28;20055;-67
2022/07/12 10:57:17;;;;;;;1.85;1.30;;;23.20;99.90;;;;;;5072637;28;20110;-66
2022/07/12 10:59:49;;;;;;;10.52;2.08;;;23.20;99.90;;;;;;5073627;28;20064;-67
2022/07/12 11:02:16;;;;;;;2.45;1.23;;;23.30;99.90;;;;;;5073109;28;20500;-67
2022/07/12 11:04:47;;;;;;;2.05;1.20;;;23.30;99.90;;;;;;5072776;28;20049;-67
2022/07/12 11:07:18;;;;;;;1.90;0.95;;;23.40;99.90;;;;;;5073283;28;20395;-68
2022/07/12 11:09:44;;;;;;;1.73;1.00;;;23.50;99.90;;;;;;5072714;28;20049;-67
2022/07/12 11:12:09;;;;;;;2.08;1.40;;;23.60;99.90;;;;;;5071864;28;20415;-67
2022/07/12 11:14:35;;;;;;;2.00;1.10;;;23.70;99.90;;;;;;5072908;28;20397;-68
2022/07/12 11:17:01;;;;;;;2.22;1.15;;;23.80;99.90;;;;;;5072811;28;20055;-66
2022/07/12 11:19:30;;;;;;;3.25;1.10;;;23.80;99.90;;;;;;5072278;28;20048;-66
2022/07/12 11:21:57;;;;;;;1.90;1.20;;;23.90;99.90;;;;;;5072052;28;20056;-66
2022/07/12 11:24:31;;;;;;;2.35;1.10;;;24.00;99.90;;;;;;5072868;28;20149;-67
2022/07/12 11:27:01;;;;;;;1.88;1.00;;;24.00;99.90;;;;;;5072688;28;20111;-66
2022/07/12 11:29:27;;;;;;;18.10;2.53;;;24.10;99.90;;;;;;5072655;28;20048;-67
2022/07/12 11:32:10;;;;;;;1.70;1.02;;;24.10;99.90;;;;;;5072744;28;20045;-66
2022/07/12 11:34:36;;;;;;;1.88;1.20;;;24.20;99.90;;;;;;5072737;28;20135;-67
2022/07/12 11:37:02;;;;;;;1.90;1.30;;;24.20;99.90;;;;;;5075051;28;20076;-67
2022/07/12 11:39:34;;;;;;;1.88;1.10;;;24.20;99.90;;;;;;5076621;28;20102;-67
2022/07/12 11:42:00;;;;;;;1.30;0.60;;;24.20;99.90;;;;;;5076925;28;20380;-67
2022/07/12 11:44:43;;;;;;;1.70;0.90;;;24.30;99.90;;;;;;5076788;28;20048;-67
2022/07/12 11:47:09;;;;;;;1.25;0.70;;;24.40;99.90;;;;;;5076373;28;20467;-67
2022/07/12 11:49:35;;;;;;;1.40;0.70;;;24.50;99.90;;;;;;5075987;28;20092;-68
2022/07/12 11:52:00;;;;;;;1.50;0.90;;;24.50;99.90;;;;;;5076156;28;20036;-67
2022/07/12 11:54:26;;;;;;;1.30;0.70;;;24.50;99.90;;;;;;5092188;28;20380;-67
2022/07/12 11:57:09;;;;;;;1.40;1.00;;;24.50;99.90;;;;;;5076460;28;20056;-67
2022/07/12 11:59:34;;;;;;;1.55;0.80;;;24.50;99.90;;;;;;5076701;28;20057;-67
2022/07/12 12:02:09;;;;;;;2.13;0.80;;;24.50;99.90;;;;;;5076052;28;20071;-67
2022/07/12 12:04:45;;;;;;;1.90;0.97;;;24.40;99.90;;;;;;5076019;28;20079;-67
2022/07/12 12:07:15;;;;;;;2.10;0.93;;;24.40;99.90;;;;;;5076310;28;20040;-67
2022/07/12 12:10:15;;;;;;;1.88;0.90;;;24.40;99.90;;;;;;5075996;28;20048;-67
2022/07/12 12:12:45;;;;;;;2.33;0.80;;;24.40;99.90;;;;;;5075339;28;20369;-68
2022/07/12 12:15:22;;;;;;;2.20;1.00;;;24.40;99.90;;;;;;5075956;28;20044;-66
2022/07/12 12:17:50;;;;;;;1.52;1.02;;;24.50;99.90;;;;;;5076095;28;20526;-67
2022/07/12 12:20:21;;;;;;;1.67;1.00;;;24.50;99.90;;;;;;5075679;28;20452;-67
2022/07/12 12:22:49;;;;;;;1.92;0.90;;;24.60;99.90;;;;;;5076594;28;20381;-67
2022/07/12 12:25:15;;;;;;;1.80;0.93;;;24.70;99.90;;;;;;5075625;28;20044;-67
2022/07/12 12:27:55;;;;;;;1.58;1.00;;;24.70;99.90;;;;;;5075953;28;20385;-67
2022/07/12 12:30:21;;;;;;;1.95;1.20;;;24.70;99.90;;;;;;5074321;28;20048;-67
2022/07/12 12:32:58;;;;;;;1.50;1.00;;;24.70;99.90;;;;;;5075399;28;20473;-68
2022/07/12 12:35:36;;;;;;;1.30;0.77;;;24.80;99.90;;;;;;5075833;28;20364;-67
2022/07/12 12:38:13;;;;;;;1.70;1.10;;;24.90;99.90;;;;;;5075358;28;20078;-67
2022/07/12 12:40:40;;;;;;;2.75;0.90;;;24.90;99.90;;;;;;5075365;28;20040;-67
2022/07/12 12:43:10;;;;;;;1.38;0.95;;;24.90;99.90;;;;;;5075689;28;20048;-68
2022/07/12 12:45:48;;;;;;;1.42;0.77;;;24.90;99.90;;;;;;5074490;28;20044;-67
2022/07/12 12:48:28;;;;;;;2.97;1.00;;;25.00;99.90;;;;;;5074873;28;20059;-68
2022/07/12 12:51:04;;;;;;;1.02;0.60;;;25.10;99.90;;;;;;5075128;28;20044;-68
2022/07/12 12:53:29;;;;;;;1.20;0.82;;;25.20;99.90;;;;;;5075191;28;20091;-69
2022/07/12 12:55:56;;;;;;;2.13;0.90;;;25.20;99.90;;;;;;5075637;28;20099;-68
2022/07/12 12:58:24;;;;;;;1.70;0.80;;;25.30;99.90;;;;;;5075156;28;20091;-69
2022/07/12 13:00:52;;;;;;;1.30;0.70;;;25.30;99.90;;;;;;5075008;28;20052;-68